Time;durP1;ratioP1;P1;durP2;ratioP2;P2;SDS_P1;SDS_P2;PMS_P1;PMS_P2;Temp;Humidity;BMP_temperature;BMP_pressure;BME280_temperature;BME280_humidity;BME280_pressure;Samples;Min_cycle;Max_cycle;Signal;HPM_P1;HPM_P2
2021/07/24 00:01:35;;;;;;;13.55;12.13;;;;;;;20.21;79.25;98105.34;5021573;28;103456;-65
2021/07/24 00:04:05;;;;;;;13.68;12.38;;;;;;;20.15;80.00;98093.53;5021233;28;102648;-65
2021/07/24 00:06:45;;;;;;;18.05;15.27;;;;;;;19.86;82.15;98088.16;5018877;28;103221;-65
2021/07/24 00:09:15;;;;;;;14.35;12.98;;;;;;;19.86;81.63;98077.44;5021037;28;103415;-65
2021/07/24 00:11:43;;;;;;;16.17;14.68;;;;;;;19.71;82.76;98078.44;5020543;28;103221;-62
2021/07/24 00:14:11;;;;;;;14.80;13.25;;;;;;;19.61;83.32;98068.00;5023790;28;102595;-62
2021/07/24 00:16:39;;;;;;;13.30;11.93;;;;;;;19.66;82.46;98068.28;5022872;28;102890;-63
2021/07/24 00:19:08;;;;;;;11.75;10.65;;;;;;;19.82;81.14;98076.13;5021097;28;103421;-62
2021/07/24 00:21:36;;;;;;;11.95;10.80;;;;;;;19.91;80.68;98077.72;5022590;28;103723;-62
2021/07/24 00:24:04;;;;;;;20.23;15.30;;;;;;;19.84;81.27;98074.13;5019911;28;102730;-62
2021/07/24 00:26:34;;;;;;;21.02;18.55;;;;;;;19.36;85.11;98055.81;5023352;27;103557;-62
2021/07/24 00:29:05;;;;;;;18.98;17.20;;;;;;;19.26;85.52;98053.38;5020121;28;103343;-62
2021/07/24 00:31:34;;;;;;;16.92;15.38;;;;;;;19.42;84.54;98052.44;5018386;28;103210;-62
2021/07/24 00:34:03;;;;;;;13.60;12.40;;;;;;;19.60;82.94;98052.94;5021955;28;102572;-62
2021/07/24 00:36:31;;;;;;;16.25;14.70;;;;;;;19.64;82.47;98051.56;5019172;28;102865;-62
2021/07/24 00:39:01;;;;;;;15.80;14.20;;;;;;;19.60;83.69;98052.94;5020781;28;103953;-62
2021/07/24 00:41:35;;;;;;;15.48;13.75;;;;;;;19.56;83.75;98044.41;5018950;27;103216;-62
2021/07/24 00:44:09;;;;;;;12.30;11.10;;;;;;;19.58;83.03;98046.94;5022137;28;102658;-62
2021/07/24 00:46:39;;;;;;;14.55;13.15;;;;;;;19.64;82.71;98054.25;5019152;28;102694;-62
2021/07/24 00:49:08;;;;;;;11.55;10.50;;;;;;;19.65;82.15;98042.50;5023307;27;104447;-62
2021/07/24 00:51:48;;;;;;;14.40;13.00;;;;;;;19.65;82.99;98053.19;5020449;28;103171;-62
2021/07/24 00:54:17;;;;;;;15.95;14.30;;;;;;;19.53;83.66;98043.97;5020593;28;102647;-62
2021/07/24 00:56:46;;;;;;;17.70;15.98;;;;;;;19.29;84.37;98036.13;5024035;28;102724;-62
2021/07/24 00:59:15;;;;;;;17.73;15.85;;;;;;;18.99;87.21;98036.06;5019012;28;103757;-62
2021/07/24 01:01:46;;;;;;;15.70;13.75;;;;;;;19.16;85.55;98025.19;5011620;27;103147;-62
2021/07/24 01:04:14;;;;;;;13.35;12.15;;;;;;;19.37;83.64;98028.03;5017146;28;102708;-62
2021/07/24 01:06:44;;;;;;;12.68;11.48;;;;;;;19.47;83.17;98033.97;5003039;28;102860;-62
2021/07/24 01:09:13;;;;;;;14.00;12.70;;;;;;;19.24;85.16;98027.81;5023423;28;103565;-62
2021/07/24 01:11:41;;;;;;;14.27;12.88;;;;;;;19.38;84.10;98035.03;5019715;28;104534;-65
2021/07/24 01:14:11;;;;;;;16.63;14.73;;;;;;;19.42;83.71;98015.78;5021097;28;102669;-65
2021/07/24 01:16:41;;;;;;;17.65;15.93;;;;;;;19.25;85.38;98013.41;5020882;28;102701;-65
2021/07/24 01:19:30;;;;;;;14.18;12.68;;;;;;;19.23;84.72;98005.53;5020554;28;104558;-65
2021/07/24 01:22:00;;;;;;;15.80;14.25;;;;;;;19.27;84.00;98011.38;5019349;28;104430;-65
2021/07/24 01:24:30;;;;;;;17.63;16.00;;;;;;;19.22;84.72;98009.25;5019858;28;102633;-65
2021/07/24 01:27:05;;;;;;;19.88;17.85;;;;;;;18.64;88.88;98009.88;5021218;28;102739;-59
2021/07/24 01:29:35;;;;;;;21.15;19.10;;;;;;;18.31;91.52;97997.69;5021977;28;103403;-59
2021/07/24 01:32:05;;;;;;;21.67;19.63;;;;;;;18.58;89.16;98007.94;5021175;28;104313;-59
2021/07/24 01:34:34;;;;;;;16.35;14.70;;;;;;;18.67;88.65;98006.84;5018474;27;102657;-63
2021/07/24 01:37:07;;;;;;;13.95;12.55;;;;;;;18.94;86.58;98010.84;5015527;28;102781;-62
2021/07/24 01:39:35;;;;;;;17.27;15.65;;;;;;;19.02;85.71;98014.28;5013743;28;103674;-62
2021/07/24 01:42:04;;;;;;;15.30;13.13;;;;;;;19.01;86.31;98019.78;5023154;27;104286;-62
2021/07/24 01:44:39;;;;;;;13.60;12.30;;;;;;;19.01;85.79;98035.84;5006715;28;102815;-62
2021/07/24 01:47:08;;;;;;;19.90;17.50;;;;;;;18.82;87.12;98034.50;5024221;28;102795;-62
2021/07/24 01:52:48;;;;;;;14.63;13.13;;;;;;;18.78;87.40;98037.72;5022277;28;103064;-62
2021/07/24 01:55:21;;;;;;;13.98;12.57;;;;;;;18.90;86.77;98034.44;5023816;27;102727;-62
2021/07/24 01:58:11;;;;;;;18.20;16.52;;;;;;;18.81;87.55;98040.03;5022226;28;103801;-62
2021/07/24 02:00:50;;;;;;;15.05;13.70;;;;;;;18.88;86.50;98049.84;5017967;28;103906;-62
2021/07/24 02:03:37;;;;;;;13.32;12.13;;;;;;;18.91;86.45;98051.34;5017915;27;103107;-62
2021/07/24 02:06:25;;;;;;;11.95;10.85;;;;;;;18.92;86.17;98056.50;5019526;28;102709;-62
2021/07/24 02:09:13;;;;;;;14.32;12.82;;;;;;;18.94;85.78;98056.34;5022346;28;102715;-60
2021/07/24 02:11:46;;;;;;;18.00;16.40;;;;;;;18.79;86.97;98058.94;5021492;28;104386;-59
2021/07/24 02:14:18;;;;;;;12.60;11.45;;;;;;;18.81;86.69;98048.06;5023328;28;103209;-62
2021/07/24 02:16:53;;;;;;;13.98;11.80;;;;;;;18.89;86.03;98051.50;5022953;28;103129;-62
2021/07/24 02:19:31;;;;;;;13.95;12.43;;;;;;;18.97;85.75;98047.94;5003954;28;103570;-62
2021/07/24 02:22:00;;;;;;;12.15;11.05;;;;;;;18.97;85.10;98047.94;5022831;28;103349;-62
2021/07/24 02:24:32;;;;;;;11.10;10.10;;;;;;;19.00;85.08;98047.59;5020129;28;103212;-62
2021/07/24 02:27:07;;;;;;;17.90;16.08;;;;;;;18.92;86.69;98053.81;5021366;28;102764;-65
2021/07/24 02:29:43;;;;;;;14.57;13.07;;;;;;;18.95;86.17;98052.63;5004496;28;102840;-62
2021/07/24 02:32:13;;;;;;;17.92;16.23;;;;;;;18.69;88.32;98039.63;5023715;28;104413;-62
2021/07/24 02:34:42;;;;;;;14.95;13.18;;;;;;;18.66;88.73;98039.97;5024296;28;103208;-62
2021/07/24 02:37:10;;;;;;;16.85;14.25;;;;;;;18.82;87.31;98039.03;5023121;28;102737;-62
2021/07/24 02:39:40;;;;;;;12.73;11.52;;;;;;;18.93;86.23;98036.75;5018555;28;103136;-62
2021/07/24 02:42:08;;;;;;;14.98;13.60;;;;;;;18.97;86.35;98038.09;5024096;28;104696;-61
2021/07/24 02:44:40;;;;;;;16.10;14.45;;;;;;;18.89;87.60;98030.09;5021125;28;104325;-61
2021/07/24 02:47:08;;;;;;;16.58;15.00;;;;;;;18.89;87.58;98032.78;5023624;28;102663;-64
2021/07/24 02:49:39;;;;;;;12.50;11.40;;;;;;;18.97;86.17;98031.91;5022159;28;102758;-61
2021/07/24 02:52:08;;;;;;;10.77;9.70;;;;;;;19.05;85.65;98032.66;5019783;28;103221;-64
2021/07/24 02:54:37;;;;;;;14.68;13.27;;;;;;;19.07;86.26;98035.97;5023862;27;103168;-61
2021/07/24 02:57:06;;;;;;;12.65;11.55;;;;;;;19.08;86.17;98040.34;5021788;28;102597;-61
2021/07/24 02:59:34;;;;;;;15.70;14.23;;;;;;;18.97;87.84;98038.09;5023029;28;102739;-61
2021/07/24 03:02:03;;;;;;;14.75;13.45;;;;;;;19.01;86.94;98041.22;5021589;28;104505;-61
2021/07/24 03:04:32;;;;;;;13.90;12.65;;;;;;;18.91;88.11;98030.78;5020811;28;103129;-61
2021/07/24 03:07:00;;;;;;;12.68;11.35;;;;;;;18.89;87.77;98029.28;5021674;28;102655;-61
2021/07/24 03:09:28;;;;;;;12.75;11.55;;;;;;;18.93;87.05;98026.06;5024581;28;103190;-61
2021/07/24 03:11:56;;;;;;;10.75;9.68;;;;;;;18.98;86.38;98015.63;5019082;28;104788;-61
2021/07/24 03:14:25;;;;;;;10.70;9.70;;;;;;;19.05;85.22;98024.63;5024298;28;103154;-61
2021/07/24 03:16:53;;;;;;;10.15;9.25;;;;;;;19.13;84.65;98020.22;5025243;28;102634;-61
2021/07/24 03:19:21;;;;;;;12.82;11.63;;;;;;;19.16;84.91;98028.72;5024905;28;102654;-61
2021/07/24 03:21:49;;;;;;;11.45;10.38;;;;;;;19.10;85.64;98019.56;5023186;28;103349;-64
2021/07/24 03:24:18;;;;;;;19.02;17.13;;;;;;;18.70;88.18;98014.53;5022348;28;103106;-65
2021/07/24 03:26:46;;;;;;;18.17;16.35;;;;;;;18.53;89.24;98003.09;5022215;28;102637;-64
2021/07/24 03:29:14;;;;;;;21.02;17.23;;;;;;;18.18;91.76;98000.13;5024210;28;102723;-64
2021/07/24 03:31:43;;;;;;;19.63;17.17;;;;;;;17.99;93.50;98008.56;5023753;28;104500;-64
2021/07/24 03:34:11;;;;;;;20.10;17.85;;;;;;;17.99;93.29;98003.22;5021288;28;103217;-64
2021/07/24 03:36:39;;;;;;;20.83;18.63;;;;;;;17.93;94.07;97999.41;5021575;28;104208;-64
2021/07/24 03:39:07;;;;;;;20.80;18.73;;;;;;;17.96;94.02;97999.06;5019563;28;102729;-64
2021/07/24 03:41:36;;;;;;;20.65;18.30;;;;;;;18.05;92.50;98005.19;5024013;28;103559;-64
2021/07/24 03:44:04;;;;;;;15.02;13.55;;;;;;;18.33;90.84;98009.06;5015653;28;104380;-65
2021/07/24 03:46:32;;;;;;;18.25;16.35;;;;;;;18.30;90.46;98004.06;5022884;28;102812;-65
2021/07/24 03:49:02;;;;;;;21.48;18.38;;;;;;;18.17;91.37;98007.28;5019642;28;102654;-65
2021/07/24 03:51:30;;;;;;;18.38;16.58;;;;;;;18.19;91.94;98009.81;5013535;28;103215;-65
2021/07/24 03:53:58;;;;;;;15.38;13.95;;;;;;;18.23;91.87;98011.09;5015402;28;103669;-61
2021/07/24 03:56:26;;;;;;;19.98;16.55;;;;;;;18.24;91.35;98007.44;5014885;28;102757;-61
2021/07/24 03:59:13;;;;;;;14.18;12.75;;;;;;;18.52;89.41;98016.66;5008407;28;102800;-61
2021/07/24 04:01:44;;;;;;;11.93;10.77;;;;;;;18.77;87.71;98026.19;4998743;28;103250;-61
2021/07/24 04:04:14;;;;;;;14.80;13.45;;;;;;;18.83;87.68;98030.00;5010917;27;103801;-61
2021/07/24 04:06:42;;;;;;;16.02;14.52;;;;;;;18.87;88.54;98024.09;5015005;28;102610;-65
2021/07/24 04:09:10;;;;;;;17.98;16.27;;;;;;;18.52;90.41;98022.84;5023330;28;102933;-61
2021/07/24 04:11:39;;;;;;;17.40;15.48;;;;;;;18.48;91.28;98026.88;5018856;28;105523;-61
2021/07/24 04:14:07;;;;;;;13.20;12.00;;;;;;;18.77;88.96;98036.91;5023642;28;104939;-61
2021/07/24 04:16:36;;;;;;;18.63;16.75;;;;;;;19.00;88.26;98045.72;5021851;28;102580;-61
2021/07/24 04:19:04;;;;;;;17.92;16.15;;;;;;;19.06;87.54;98058.41;5023547;28;102694;-68
2021/07/24 04:21:34;;;;;;;15.65;14.18;;;;;;;18.91;88.59;98076.25;5019373;28;103266;-63
2021/07/24 04:24:02;;;;;;;14.27;12.98;;;;;;;19.00;87.91;98075.16;5021769;27;103120;-62
2021/07/24 04:26:32;;;;;;;14.10;12.80;;;;;;;19.13;87.62;98079.94;5021613;28;103013;-62
2021/07/24 04:29:00;;;;;;;16.65;15.00;;;;;;;19.06;87.53;98079.81;5017781;27;102671;-62
2021/07/24 04:31:28;;;;;;;16.17;14.52;;;;;;;18.83;89.57;98073.66;5022592;28;103304;-62
2021/07/24 04:33:58;;;;;;;15.73;14.25;;;;;;;19.04;88.01;98071.13;5017857;28;103775;-63
2021/07/24 04:36:26;;;;;;;19.05;16.98;;;;;;;18.90;88.87;98047.81;5020591;28;102850;-62
2021/07/24 04:38:55;;;;;;;19.35;17.42;;;;;;;18.50;93.08;98040.06;5020694;27;102694;-61
2021/07/24 04:41:23;;;;;;;19.52;16.88;;;;;;;18.35;95.19;98049.81;5021696;28;103463;-62
2021/07/24 04:43:51;;;;;;;15.38;13.98;;;;;;;18.50;93.82;98061.47;5021049;28;104418;-62
2021/07/24 04:46:19;;;;;;;14.70;13.40;;;;;;;18.83;91.01;98062.94;5019993;28;102974;-62
2021/07/24 04:48:47;;;;;;;16.75;15.15;;;;;;;18.97;90.06;98075.56;5020412;28;102844;-62
2021/07/24 04:51:16;;;;;;;21.75;19.45;;;;;;;18.79;90.76;98066.97;5019204;28;103459;-63
2021/07/24 04:53:46;;;;;;;15.35;13.75;;;;;;;19.04;89.87;98081.84;5020047;28;103256;-61
2021/07/24 04:56:16;;;;;;;15.38;13.98;;;;;;;19.24;89.17;98092.06;5019605;28;102849;-61
2021/07/24 04:58:44;;;;;;;18.40;16.60;;;;;;;19.31;88.71;98109.09;5021246;28;102659;-62
2021/07/24 05:01:13;;;;;;;14.20;12.90;;;;;;;19.35;89.68;98084.44;5021102;28;103321;-63
2021/07/24 05:03:42;;;;;;;17.70;16.00;;;;;;;19.36;88.50;98085.28;5020303;28;103164;-62
2021/07/24 05:06:10;;;;;;;15.07;13.68;;;;;;;19.47;88.10;98084.88;5018296;28;102664;-62
2021/07/24 05:08:38;;;;;;;14.93;13.02;;;;;;;19.51;88.35;98089.69;5018825;28;102648;-62
2021/07/24 05:11:06;;;;;;;20.25;18.40;;;;;;;19.22;90.00;98086.91;5013927;28;104140;-63
2021/07/24 05:13:36;;;;;;;20.27;18.27;;;;;;;19.16;89.68;98090.28;5020017;28;108108;-63
2021/07/24 05:16:05;;;;;;;20.20;17.55;;;;;;;19.06;91.79;98079.81;5021348;27;102705;-63
2021/07/24 05:18:33;;;;;;;19.70;17.80;;;;;;;18.95;93.46;98082.91;5022323;28;102718;-63
2021/07/24 05:21:01;;;;;;;18.08;16.17;;;;;;;19.13;91.50;98076.44;5019236;28;103731;-63
2021/07/24 05:23:29;;;;;;;22.63;17.48;;;;;;;18.82;94.51;98080.00;5019999;28;104546;-62
2021/07/24 05:25:57;;;;;;;14.10;12.70;;;;;;;19.26;91.81;98098.06;5020842;28;102553;-61
2021/07/24 05:28:25;;;;;;;14.05;12.75;;;;;;;19.59;89.68;98102.19;5025710;28;102585;-61
2021/07/24 05:30:55;;;;;;;16.20;14.50;;;;;;;19.74;89.03;98111.06;5027216;28;103329;-61
2021/07/24 05:33:23;;;;;;;18.17;16.27;;;;;;;19.86;88.27;98114.97;5027554;28;103068;-61
2021/07/24 05:35:50;;;;;;;18.10;16.33;;;;;;;19.54;90.71;98117.94;5020062;28;102570;-61
2021/07/24 05:38:18;;;;;;;15.73;14.25;;;;;;;19.95;87.90;98121.94;5024466;27;102618;-61
2021/07/24 05:40:47;;;;;;;15.25;13.57;;;;;;;20.23;87.48;98122.94;5022181;27;103629;-61
2021/07/24 05:43:15;;;;;;;14.75;13.05;;;;;;;20.43;85.45;98117.88;5024022;27;104351;-61
2021/07/24 05:45:43;;;;;;;13.75;12.32;;;;;;;20.58;84.83;98107.09;5021810;27;102643;-62
2021/07/24 05:48:12;;;;;;;13.50;12.30;;;;;;;20.77;84.48;98109.22;5026156;27;102747;-61
2021/07/24 05:50:40;;;;;;;16.23;13.43;;;;;;;20.88;83.55;98124.00;5023144;27;103520;-61
2021/07/24 05:53:08;;;;;;;18.30;16.48;;;;;;;20.85;83.21;98109.09;5021850;28;103624;-61
2021/07/24 05:55:37;;;;;;;16.17;14.65;;;;;;;20.70;83.24;98113.66;5023375;28;102695;-61
2021/07/24 05:58:08;;;;;;;19.40;17.35;;;;;;;20.95;82.12;98122.19;5023332;28;102702;-61
2021/07/24 06:00:37;;;;;;;14.77;13.27;;;;;;;20.98;82.13;98132.56;5023705;28;103328;-61
2021/07/24 06:03:05;;;;;;;15.23;13.73;;;;;;;21.12;81.88;98137.94;5019956;28;103390;-61
2021/07/24 06:05:35;;;;;;;13.63;12.32;;;;;;;21.26;81.67;98134.34;5025580;28;103818;-61
2021/07/24 06:08:03;;;;;;;12.73;11.52;;;;;;;21.28;80.81;98143.03;5025309;28;102691;-61
2021/07/24 06:10:31;;;;;;;14.60;13.20;;;;;;;21.28;81.22;98144.88;5023530;28;104295;-61
2021/07/24 06:13:00;;;;;;;12.88;11.68;;;;;;;21.21;81.21;98152.06;5027617;27;104269;-61
2021/07/24 06:15:29;;;;;;;14.88;13.50;;;;;;;21.21;81.40;98158.28;5028573;28;102612;-61
2021/07/24 06:17:58;;;;;;;19.73;17.80;;;;;;;20.90;82.65;98152.31;5024892;28;102625;-63
2021/07/24 06:20:26;;;;;;;19.90;17.58;;;;;;;20.78;83.13;98164.53;5021060;28;103730;-64
2021/07/24 06:22:56;;;;;;;19.75;16.25;;;;;;;20.96;83.68;98164.16;5019410;28;103173;-64
2021/07/24 06:25:23;;;;;;;15.32;13.93;;;;;;;21.16;82.11;98163.41;5019707;28;102726;-61
2021/07/24 06:27:51;;;;;;;17.20;15.55;;;;;;;21.05;82.18;98179.94;5018419;28;102823;-61
2021/07/24 06:30:19;;;;;;;14.98;13.57;;;;;;;21.15;81.77;98163.56;5017854;27;104504;-64
2021/07/24 06:32:51;;;;;;;21.08;18.23;;;;;;;20.67;86.13;98151.59;5017204;28;103289;-62
2021/07/24 06:35:19;;;;;;;17.63;13.50;;;;;;;20.81;85.50;98166.84;5024221;28;102697;-61
2021/07/24 06:37:48;;;;;;;17.88;15.95;;;;;;;20.99;86.88;98193.31;5023092;28;102688;-62
2021/07/24 06:40:17;;;;;;;18.42;16.15;;;;;;;21.11;88.16;98208.75;5024722;28;103115;-64
2021/07/24 06:42:45;;;;;;;18.65;16.75;;;;;;;21.22;88.91;98205.59;5014572;27;103238;-62
2021/07/24 06:45:14;;;;;;;15.85;14.18;;;;;;;21.39;88.05;98196.25;5010224;28;102982;-63
2021/07/24 06:47:42;;;;;;;17.48;15.80;;;;;;;21.57;88.76;98192.31;5010649;28;102769;-64
2021/07/24 06:50:11;;;;;;;14.02;12.73;;;;;;;21.80;89.09;98191.09;5010606;28;103280;-64
2021/07/24 06:52:40;;;;;;;12.50;11.38;;;;;;;21.85;88.65;98179.75;5015135;27;103293;-64
2021/07/24 06:55:09;;;;;;;13.60;12.30;;;;;;;21.99;87.35;98176.16;5013803;27;102720;-64
2021/07/24 06:57:39;;;;;;;16.20;14.57;;;;;;;22.20;86.75;98162.69;5021138;27;102950;-64
2021/07/24 07:00:08;;;;;;;12.63;11.43;;;;;;;22.32;86.49;98166.47;5016411;27;103248;-64
2021/07/24 07:02:36;;;;;;;12.27;11.15;;;;;;;22.59;84.59;98166.63;5016085;28;103158;-63
2021/07/24 07:05:05;;;;;;;11.57;10.48;;;;;;;22.78;84.42;98182.06;5018133;28;102855;-64
2021/07/24 07:07:33;;;;;;;13.70;12.50;;;;;;;22.89;84.26;98176.09;5022445;28;102666;-64
2021/07/24 07:10:01;;;;;;;19.92;16.33;;;;;;;22.49;82.38;98173.19;5021894;28;107560;-64
2021/07/24 07:12:29;;;;;;;20.80;18.80;;;;;;;21.91;85.64;98173.63;5018822;27;103118;-63
2021/07/24 07:14:59;;;;;;;21.42;17.20;;;;;;;22.19;86.45;98163.69;5016965;28;102841;-63
2021/07/24 07:17:27;;;;;;;16.90;15.30;;;;;;;22.21;84.48;98158.09;5020020;28;102543;-64
2021/07/24 07:19:55;;;;;;;20.08;17.15;;;;;;;22.13;85.02;98155.56;5018416;28;103926;-63
2021/07/24 07:22:23;;;;;;;20.10;16.67;;;;;;;21.77;87.81;98150.31;5021185;28;103724;-63
2021/07/24 07:24:52;;;;;;;19.17;15.68;;;;;;;22.13;85.21;98156.41;5017380;28;102808;-64
2021/07/24 07:27:20;;;;;;;19.52;17.35;;;;;;;22.17;81.52;98163.06;5018567;28;102785;-62
2021/07/24 07:29:48;;;;;;;15.93;14.32;;;;;;;22.35;83.59;98176.84;5019916;28;104513;-61
2021/07/24 07:32:18;;;;;;;16.08;14.55;;;;;;;22.44;81.54;98194.50;5020359;28;102980;-62
2021/07/24 07:34:46;;;;;;;17.10;15.50;;;;;;;22.49;81.02;98181.25;5020400;28;102907;-61
2021/07/24 07:37:14;;;;;;;18.80;15.75;;;;;;;22.54;80.17;98178.78;5019899;28;103423;-64
2021/07/24 07:39:42;;;;;;;15.98;14.38;;;;;;;22.46;80.10;98188.91;5018474;27;103366;-61
2021/07/24 07:42:10;;;;;;;16.70;15.00;;;;;;;22.54;80.10;98192.25;5021171;28;103226;-64
2021/07/24 07:44:39;;;;;;;14.27;12.77;;;;;;;22.63;80.33;98194.78;5021323;27;102730;-62
2021/07/24 07:47:07;;;;;;;15.40;13.90;;;;;;;22.66;79.52;98207.88;5020389;28;102839;-62
2021/07/24 07:49:36;;;;;;;14.20;12.77;;;;;;;22.82;78.39;98210.28;5014494;28;103389;-61
2021/07/24 07:52:05;;;;;;;14.77;13.38;;;;;;;22.85;78.06;98199.09;5021639;28;103394;-64
2021/07/24 07:54:35;;;;;;;16.10;14.30;;;;;;;22.79;77.87;98210.66;5019945;28;102757;-61
2021/07/24 07:57:04;;;;;;;13.05;11.82;;;;;;;22.92;77.74;98218.78;5015184;28;102640;-66
2021/07/24 07:59:33;;;;;;;15.35;13.88;;;;;;;22.78;76.68;98241.31;5010570;28;102945;-61
2021/07/24 08:02:01;;;;;;;17.98;15.15;;;;;;;22.72;75.57;98236.72;5018578;28;103411;-62
2021/07/24 08:04:29;;;;;;;15.13;13.68;;;;;;;22.72;75.84;98234.00;5016873;28;103424;-62
2021/07/24 08:06:59;;;;;;;13.77;12.43;;;;;;;22.67;76.01;98228.41;5016781;28;102682;-62
2021/07/24 08:09:27;;;;;;;14.35;13.00;;;;;;;22.60;75.00;98233.69;5017376;28;104347;-62
2021/07/24 08:11:55;;;;;;;15.05;13.55;;;;;;;22.53;75.29;98236.38;5015758;28;104133;-62
2021/07/24 08:14:23;;;;;;;14.30;12.73;;;;;;;22.68;75.08;98236.25;5018110;27;102974;-61
2021/07/24 08:16:51;;;;;;;14.38;13.07;;;;;;;22.77;75.22;98212.69;5019200;28;102727;-61
2021/07/24 08:19:20;;;;;;;15.30;13.68;;;;;;;22.68;75.35;98205.84;5020636;28;103211;-62
2021/07/24 08:21:48;;;;;;;14.10;12.48;;;;;;;22.71;76.40;98163.19;5018523;28;103238;-61
2021/07/24 08:24:17;;;;;;;15.88;14.20;;;;;;;22.53;77.39;98152.09;5017464;28;102711;-61
2021/07/24 08:26:45;;;;;;;17.27;15.57;;;;;;;22.17;80.96;98130.78;5019975;27;103006;-61
2021/07/24 08:29:17;;;;;;;17.20;15.40;;;;;;;22.28;79.76;98122.16;5020561;28;103264;-61
2021/07/24 08:31:45;;;;;;;16.27;13.90;;;;;;;22.28;80.26;98106.00;5020778;28;103153;-62
2021/07/24 08:34:14;;;;;;;15.60;14.10;;;;;;;22.42;79.01;98099.69;5018354;28;103217;-62
2021/07/24 08:36:42;;;;;;;15.15;12.80;;;;;;;22.63;78.62;98111.34;5021243;28;102559;-66
2021/07/24 08:39:10;;;;;;;14.60;13.18;;;;;;;23.07;77.97;98106.34;5019189;28;102934;-66
2021/07/24 08:41:41;;;;;;;20.95;13.80;;;;;;;23.17;75.53;98085.22;5019132;28;103079;-66
2021/07/24 08:44:11;;;;;;;16.15;14.50;;;;;;;22.97;79.05;98068.19;5019082;28;102843;-65
2021/07/24 08:46:39;;;;;;;16.35;14.85;;;;;;;22.71;78.70;98073.53;5015727;28;102804;-66
2021/07/24 08:49:11;;;;;;;14.95;13.27;;;;;;;23.36;78.43;98068.25;5017848;28;103173;-65
2021/07/24 08:51:40;;;;;;;13.93;12.63;;;;;;;23.97;76.96;98070.72;5019700;27;103129;-66
2021/07/24 08:54:08;;;;;;;15.27;13.38;;;;;;;23.87;74.70;98059.53;5018348;28;102720;-66
2021/07/24 08:56:44;;;;;;;15.32;13.73;;;;;;;23.52;75.69;98048.97;5018858;28;102715;-66
2021/07/24 08:59:17;;;;;;;13.57;12.27;;;;;;;24.05;73.55;98051.63;5018478;28;103608;-67
2021/07/24 09:01:52;;;;;;;13.98;12.48;;;;;;;24.50;71.46;98053.38;5017971;28;104227;-66
2021/07/24 09:04:22;;;;;;;12.80;11.48;;;;;;;25.01;67.01;98047.09;5016118;28;102604;-66
2021/07/24 09:06:54;;;;;;;13.27;11.90;;;;;;;25.05;65.68;98054.53;5015438;28;103202;-66
2021/07/24 09:09:22;;;;;;;11.65;10.55;;;;;;;25.56;66.52;98059.81;5016800;27;104532;-67
2021/07/24 09:11:50;;;;;;;14.20;12.70;;;;;;;25.65;64.52;98063.06;5018571;28;103210;-66
2021/07/24 09:14:20;;;;;;;12.35;11.15;;;;;;;26.32;65.59;98070.31;5019296;28;102737;-67
2021/07/24 09:16:50;;;;;;;12.88;11.40;;;;;;;26.69;63.53;98058.41;5019572;28;102934;-66
2021/07/24 09:19:19;;;;;;;13.25;11.95;;;;;;;27.10;63.99;98065.78;5019077;28;104540;-66
2021/07/24 09:21:47;;;;;;;13.55;11.93;;;;;;;27.32;62.90;98068.78;5019949;28;103120;-67
2021/07/24 09:24:20;;;;;;;12.52;11.32;;;;;;;27.58;60.46;98073.81;5018866;28;103053;-64
2021/07/24 09:26:48;;;;;;;14.10;12.73;;;;;;;27.50;60.30;98082.28;5018081;28;103517;-66
2021/07/24 09:29:18;;;;;;;12.32;11.23;;;;;;;27.82;59.25;98085.53;5017043;28;103564;-67
2021/07/24 09:31:48;;;;;;;14.18;12.05;;;;;;;27.25;59.18;98087.03;5011587;28;103789;-62
2021/07/24 09:34:17;;;;;;;13.52;12.13;;;;;;;27.67;60.32;98099.56;5019015;27;103067;-67
2021/07/24 09:36:46;;;;;;;13.25;11.77;;;;;;;27.88;57.80;98096.25;5015762;28;102690;-62
2021/07/24 09:39:19;;;;;;;11.45;10.35;;;;;;;28.77;56.29;98111.34;5012906;28;104425;-66
2021/07/24 09:41:49;;;;;;;14.57;11.68;;;;;;;29.09;55.31;98104.34;5016545;28;102700;-66
2021/07/24 09:44:28;;;;;;;12.88;11.68;;;;;;;29.39;54.43;98106.03;5017801;27;103140;-67
2021/07/24 09:46:58;;;;;;;13.35;11.18;;;;;;;29.68;53.09;98105.72;5018459;28;102696;-67
2021/07/24 09:49:35;;;;;;;12.60;11.40;;;;;;;29.06;53.39;98093.97;5017990;28;107441;-67
2021/07/24 09:52:11;;;;;;;21.05;12.50;;;;;;;30.01;55.08;98085.84;5018811;28;103121;-67
2021/07/24 09:54:39;;;;;;;18.25;13.20;;;;;;;28.96;53.91;98091.06;5017062;28;102637;-67
2021/07/24 09:57:08;;;;;;;16.25;11.80;;;;;;;29.09;53.58;98082.59;5017659;27;102726;-67
2021/07/24 09:59:36;;;;;;;14.02;12.65;;;;;;;29.37;52.50;98081.78;5016365;28;106129;-66
2021/07/24 10:02:07;;;;;;;12.75;11.15;;;;;;;29.47;51.23;98075.69;5016687;27;104518;-67
2021/07/24 10:04:37;;;;;;;13.15;11.75;;;;;;;29.55;51.09;98081.56;5016981;28;102823;-66
2021/07/24 10:07:31;;;;;;;13.13;11.75;;;;;;;29.50;51.99;98062.44;5023097;27;102605;-67
2021/07/24 10:10:01;;;;;;;14.00;12.55;;;;;;;29.74;51.84;98058.47;5020142;27;103356;-67
2021/07/24 10:12:29;;;;;;;12.70;11.50;;;;;;;30.39;52.27;98066.00;5020588;27;103188;-66
2021/07/24 10:14:59;;;;;;;13.32;12.13;;;;;;;30.05;51.69;98070.66;5023305;28;102851;-63
2021/07/24 10:17:29;;;;;;;12.93;11.65;;;;;;;30.25;51.48;98081.03;5020628;28;102682;-62
2021/07/24 10:19:57;;;;;;;12.85;11.65;;;;;;;29.09;52.36;98088.03;5017356;28;103331;-62
2021/07/24 10:22:26;;;;;;;17.00;11.57;;;;;;;29.06;52.96;98077.66;5014092;28;104532;-62
2021/07/24 10:24:54;;;;;;;13.15;11.57;;;;;;;29.35;51.99;98069.50;5021300;28;102807;-62
2021/07/24 10:27:27;;;;;;;12.70;11.50;;;;;;;29.49;52.99;98073.53;5019240;27;102779;-62
2021/07/24 10:30:00;;;;;;;13.02;11.82;;;;;;;29.22;52.26;98071.44;5020852;28;103387;-62
2021/07/24 10:32:31;;;;;;;12.77;11.50;;;;;;;29.62;52.04;98065.88;5020916;28;104320;-62
2021/07/24 10:35:01;;;;;;;12.57;11.30;;;;;;;29.94;52.53;98060.69;5021797;28;102628;-62
2021/07/24 10:37:34;;;;;;;13.18;11.82;;;;;;;30.82;51.34;98046.09;5016477;28;102785;-62
2021/07/24 10:40:34;;;;;;;12.27;11.15;;;;;;;30.04;51.58;98036.34;5018010;28;103186;-62
2021/07/24 10:43:06;;;;;;;10.73;9.80;;;;;;;30.59;51.45;98038.19;5020209;28;103071;-62
2021/07/24 10:45:54;;;;;;;13.10;11.85;;;;;;;29.93;51.18;98052.78;5021456;28;102652;-62
2021/07/24 10:48:26;;;;;;;11.82;10.63;;;;;;;30.13;51.40;98042.16;5014536;28;104542;-62
2021/07/24 10:51:15;;;;;;;13.13;11.82;;;;;;;30.02;49.27;98037.66;5018115;28;103394;-62
2021/07/24 10:54:06;;;;;;;12.60;11.35;;;;;;;30.47;48.43;98029.31;5019650;28;103090;-62
2021/07/24 10:56:39;;;;;;;20.65;16.40;;;;;;;30.74;48.54;98030.16;5020697;28;102678;-62
2021/07/24 10:59:23;;;;;;;19.63;17.85;;;;;;;31.13;48.14;98025.44;5021812;28;102668;-62
2021/07/24 11:01:56;;;;;;;21.20;19.20;;;;;;;31.65;47.84;98037.38;5019980;28;103290;-62
2021/07/24 11:04:43;;;;;;;28.35;25.85;;;;;;;31.75;47.15;98042.09;5019825;28;104552;-62
2021/07/24 11:07:40;;;;;;;11.40;10.30;;;;;;;31.69;44.24;98041.25;5020435;28;103494;-62
2021/07/24 11:10:09;;;;;;;12.73;10.07;;;;;;;31.27;45.72;98038.38;5019166;27;102969;-62
2021/07/24 11:12:38;;;;;;;11.10;10.00;;;;;;;31.72;45.93;98037.16;5019851;27;103347;-63
2021/07/24 11:15:08;;;;;;;12.00;9.45;;;;;;;31.67;46.94;98026.19;5018675;27;103217;-63
2021/07/24 11:17:36;;;;;;;13.57;10.35;;;;;;;30.92;47.09;98029.81;5021046;28;102822;-63
2021/07/24 11:20:46;;;;;;;11.93;10.73;;;;;;;30.95;47.19;98032.06;5016761;28;103865;-63
2021/07/24 11:23:15;;;;;;;11.82;10.55;;;;;;;30.49;47.54;98032.59;5019919;28;103168;-63
2021/07/24 11:25:46;;;;;;;11.82;10.63;;;;;;;30.70;47.42;98026.31;5018796;28;104331;-63
2021/07/24 11:28:22;;;;;;;10.27;9.27;;;;;;;30.67;48.37;98029.56;5020281;28;103754;-62